Pagrindinis puslapis
METAR-TAF:

METAR-TAF

Oro uostai :

Koyuk, Aliaska, Jungtinės Amerikos Valstijos

platuma: 64-56-02N, ilguma: 161-09-29W, Aukštis: 37 m

Dabartinis oras

Ataskaita buvo paskelbta 39 minutes, ne 20:56 UTC
Vėjas 5 kt iš Rytų
Temperatūra 6°C
Drėgmė 65%
Slėgis 1000 hPa
Matomumas: 16.1 km
Giedras dangus

METAR: PAKK 212056Z AUTO 09005KT 10SM CLR 06/00 A2954 RMK AO2 SLP018 T00560000 53004

Laikas: 13:35 (21:35 UTC)


TAF: trūkstamas

Orai ataskaitas ir orų prognozės (METAR, TAF).

turimą stotys yra geltonos ir raudonos taškus žemėlapyje.

Perkelti pele per norėdami pamatyti stoties vardą.

Tada spustelėkite, norėdami matyti oro stebėjimo ir prognozės.

Norėdami pakeisti žemėlapį: spustelėkite ant žalios mygtukų su juodo kryžiaus žemyn,; žalią mygtuką su brūkšneliu, jei norite nutolinti; arba žalių rodyklių gretimoms žemėlapius.


METAR-TAF: